Air Quality Table

TIMESTAMP NO2 SO2 O3 PM10 PM2.5 TEMP HUM AIRPRES WS WD NO
2021-06-18 11:00 16.54 ug/m3 1.59 ug/m3 85.67 ug/m3 8.8 ug/m3 ug/m3 23.64 C 76.74 % 1,011.72 mbar 4.19 m/s 157.88 Deg 0.87 ug/m3
2021-06-18 10:00 22.67 ug/m3 1.44 ug/m3 85.99 ug/m3 9.47 ug/m3 ug/m3 23.69 C 73.77 % 1,011.86 mbar 3.09 m/s 167.12 Deg 1.09 ug/m3
2021-06-18 09:00 23.71 ug/m3 1.66 ug/m3 88.56 ug/m3 11.8 ug/m3 ug/m3 23.5 C 70.89 % 1,011.77 mbar 2.45 m/s 170.05 Deg 1.16 ug/m3
2021-06-18 08:00 23.85 ug/m3 1.69 ug/m3 85.49 ug/m3 19.11 ug/m3 ug/m3 22.94 C 79.97 % 1,011.63 mbar 1.83 m/s 149 Deg 1.19 ug/m3
2021-06-18 07:00 28.83 ug/m3 1.69 ug/m3 79.65 ug/m3 15.24 ug/m3 ug/m3 22.38 C 82.38 % 1,011.44 mbar 1.31 m/s 154.67 Deg 1.26 ug/m3
2021-06-18 06:00 29.39 ug/m3 1.76 ug/m3 80.4 ug/m3 18.41 ug/m3 ug/m3 21.59 C 84.72 % 1,011.27 mbar 0.35 m/s 152.28 Deg 1.19 ug/m3
2021-06-18 05:00 32.29 ug/m3 1.65 ug/m3 63.57 ug/m3 12.58 ug/m3 ug/m3 21.25 C 85.16 % 1,010.84 mbar 0.46 m/s 141.85 Deg 1.23 ug/m3
2021-06-18 04:00 26.2 ug/m3 1.65 ug/m3 78.34 ug/m3 12.62 ug/m3 ug/m3 21.34 C 84.41 % 1,010.89 mbar 0.29 m/s 147.93 Deg 1.08 ug/m3
2021-06-18 03:00 22.31 ug/m3 1.53 ug/m3 77.59 ug/m3 10.14 ug/m3 ug/m3 21.64 C 83.39 % 1,010.38 mbar 1.39 m/s 209.52 Deg 0.94 ug/m3
2021-06-18 02:00 25.77 ug/m3 1.7 ug/m3 74.78 ug/m3 9.12 ug/m3 ug/m3 21.71 C 82.68 % 1,010.55 mbar 1.5 m/s 194.53 Deg 0.98 ug/m3
2021-06-18 01:00 19.12 ug/m3 1.42 ug/m3 84.69 ug/m3 12.98 ug/m3 ug/m3 21.76 C 82.67 % 1,010.38 mbar 2 m/s 171.58 Deg 0.87 ug/m3
2021-06-18 00:00 21.71 ug/m3 1.62 ug/m3 80.53 ug/m3 23.15 ug/m3 ug/m3 21.86 C 82.12 % 1,010.31 mbar 2.8 m/s 154.38 Deg 0.89 ug/m3
2021-06-17 23:00 27.86 ug/m3 1.45 ug/m3 71.62 ug/m3 26.25 ug/m3 ug/m3 21.7 C 81.65 % 1,011.22 mbar 1.92 m/s 137.95 Deg 1.03 ug/m3
2021-06-17 22:00 30.27 ug/m3 1.74 ug/m3 75.15 ug/m3 20.56 ug/m3 ug/m3 21.84 C 80.2 % 1,011.90 mbar 0.57 m/s 171.32 Deg 1 ug/m3
2021-06-17 21:00 32.61 ug/m3 1.69 ug/m3 74.66 ug/m3 22.02 ug/m3 ug/m3 22.02 C 78.83 % 1,011.63 mbar 0.9 m/s 241.47 Deg 1 ug/m3
2021-06-17 20:00 26.27 ug/m3 1.56 ug/m3 77.84 ug/m3 35 ug/m3 ug/m3 22.26 C 77.11 % 1,010.88 mbar 2.16 m/s 180.73 Deg 0.85 ug/m3
2021-06-17 19:00 23.36 ug/m3 1.71 ug/m3 83.43 ug/m3 34.58 ug/m3 ug/m3 22.79 C 74.07 % 1,010.69 mbar 3.1 m/s 183.25 Deg 0.77 ug/m3
2021-06-17 18:00 20.69 ug/m3 1.58 ug/m3 89.71 ug/m3 19.35 ug/m3 ug/m3 23.47 C 70.25 % 1,010.62 mbar 3.06 m/s 191.05 Deg 0.7 ug/m3
2021-06-17 17:00 18.55 ug/m3 1.67 ug/m3 90.52 ug/m3 17.9 ug/m3 ug/m3 23.83 C 68.17 % 1,010.66 mbar 3.51 m/s 188.45 Deg 0.69 ug/m3
2021-06-17 16:00 18.42 ug/m3 1.77 ug/m3 91.74 ug/m3 13.14 ug/m3 ug/m3 24.17 C 65.99 % 1,010.88 mbar 3.68 m/s 200.5 Deg 0.68 ug/m3
2021-06-17 15:00 18.84 ug/m3 1.71 ug/m3 91.62 ug/m3 8.79 ug/m3 ug/m3 24.2 C 66.25 % 1,011.12 mbar 3.78 m/s 186.33 Deg 0.73 ug/m3
2021-06-17 14:00 17.76 ug/m3 1.71 ug/m3 91.97 ug/m3 8.06 ug/m3 ug/m3 24.06 C 68.47 % 1,011.38 mbar 4.19 m/s 186.1 Deg 0.73 ug/m3

It is to be noted that the data is provisional and subject to quality assurance procedures. For validated data kindly refer your request to contact.air@era.org.mt